Portada
METAR-TAF:

METAR-TAF

Aeroports :

Winnipeg, Manitoba, Canadà

latitud: 49-54N, longitud: 097-14W, altitud: 239 m

Observació

L'informe es va fer fa 39 minuts, a les 16:00 UTC
Vent calma
Temperatura 1°C
Humitat 69%
Pressió 1031 hPa
Visibilitat: 24.1 km
Escasses núvols a una alçada de 1600 ft
Escasses núvols a una alçada de 27000 ft

METAR: CYWG 231600Z 00000KT 15SM FEW016 FEW270 01/M04 A3044 RMK SC1CI1 SC TR CI TR SLP326

Hora: 11:39 (16:39 UTC)

Pronòstic

L'informe es va fer fa 5 hores i 0 minuts, a les 11:39 UTC
Pronòstic vàlid del 23 a les 12 UTC al 24 a les 12 UTC
Vent 5 kt del Oest
Visibilitat: 10 km
Escasses núvols a una alçada de 2000 ft
A partir de les 23 a les 1700 UTC
Vent 8 kt del Sud-Est
Visibilitat: 10 km
Cel clar

TAF: CYWG 231139Z 2312/2412 28005KT P6SM FEW020 FM231700 14008KT P6SM SKC RMK NXT FCST BY 231800Z

Observacions i pronòstics meteorològics de més de 4000 aeroports (METAR i TAF).

Les estacions disponibles són els punts grocs i vermells al mapa.

Posi el ratolí al punt desitjat per veure el nom de l'estació.

Feu clic per veure les observacions i els pronòstics meteorològics.

Per canviar el mapa: feu clic els botons verds amb una creu de color negre per apropar; al botó verd amb un guió per allunyar la imatge; o en les fletxes verdes per a mapes adjacents.


METAR-TAF: